Time;durP1;ratioP1;P1;durP2;ratioP2;P2;SDS_P1;SDS_P2;PMS_P1;PMS_P2;Temp;Humidity;BMP_temperature;BMP_pressure;BME280_temperature;BME280_humidity;BME280_pressure;Samples;Min_cycle;Max_cycle;Signal;HPM_P1;HPM_P2
2022/05/05 00:00:15;;;;;;;2.50;1.65;;;16.40;56.90;;;;;;5081060;28;20417;-70
2022/05/05 00:02:44;;;;;;;2.85;1.65;;;16.30;56.60;;;;;;5073119;28;20408;-70
2022/05/05 00:05:10;;;;;;;2.53;1.70;;;15.50;56.20;;;;;;5072816;28;20227;-70
2022/05/05 00:07:37;;;;;;;3.45;1.60;;;17.10;57.00;;;;;;5072918;28;20387;-70
2022/05/05 00:14:23;;;;;;;3.35;1.70;;;16.40;56.70;;;;;;5073750;28;20057;-72
2022/05/05 00:15:36;;;;;;;2.28;1.60;;;15.50;56.60;;;;;;5092746;28;20043;-70
2022/05/05 00:18:04;;;;;;;2.78;1.60;;;16.30;50.40;;;;;;5092982;28;20052;-71
2022/05/05 00:20:31;;;;;;;3.67;1.63;;;16.20;57.00;;;;;;5092678;28;20062;-71
2022/05/05 00:22:57;;;;;;;2.50;1.60;;;16.20;56.50;;;;;;5093017;28;20448;-70
2022/05/05 00:25:24;;;;;;;2.45;1.60;;;16.30;56.70;;;;;;5093719;28;20048;-70
2022/05/05 00:27:51;;;;;;;3.15;1.50;;;15.90;56.40;;;;;;5092876;28;20058;-70
2022/05/05 00:30:17;;;;;;;3.25;1.80;;;16.20;56.90;;;;;;5082408;28;20060;-70
2022/05/05 00:32:44;;;;;;;3.60;1.65;;;15.70;56.80;;;;;;5072339;28;20078;-70
2022/05/05 00:35:12;;;;;;;3.05;1.98;;;16.10;50.80;;;;;;5072446;28;20063;-71
2022/05/05 00:37:39;;;;;;;2.78;1.70;;;16.90;57.50;;;;;;5073194;28;20048;-71
2022/05/05 00:40:07;;;;;;;2.17;1.60;;;16.20;57.00;;;;;;5073452;28;20420;-70
2022/05/05 00:42:33;;;;;;;3.88;1.70;;;16.30;56.70;;;;;;5072395;28;20476;-70
2022/05/05 00:45:00;;;;;;;2.97;1.75;;;15.70;56.70;;;;;;5072090;28;20052;-70
2022/05/05 00:47:27;;;;;;;4.43;1.70;;;15.70;56.50;;;;;;5072927;28;20056;-70
2022/05/05 00:49:54;;;;;;;2.42;1.70;;;16.10;56.70;;;;;;5073328;28;20409;-70
2022/05/05 00:52:22;;;;;;;2.40;1.73;;;16.20;56.70;;;;;;5073170;28;20123;-71
2022/05/05 00:54:49;;;;;;;2.00;1.70;;;16.30;57.00;;;;;;5072924;28;20051;-70
2022/05/05 00:57:15;;;;;;;3.42;1.80;;;16.10;56.70;;;;;;5071889;28;20060;-71
2022/05/05 00:59:43;;;;;;;2.35;2.10;;;16.00;56.90;;;;;;5071972;28;20048;-70
2022/05/05 01:02:09;;;;;;;2.83;1.73;;;15.50;56.30;;;;;;5072753;28;20135;-71
2022/05/05 01:04:37;;;;;;;3.33;1.70;;;16.10;56.90;;;;;;5074043;28;20049;-70
2022/05/05 01:07:05;;;;;;;4.18;1.83;;;16.10;50.50;;;;;;5071555;28;20096;-71
2022/05/05 01:09:34;;;;;;;3.00;1.80;;;15.50;56.50;;;;;;5105476;28;20060;-70
2022/05/05 01:12:02;;;;;;;2.63;1.80;;;;;;;;;;5072840;28;20040;-70
2022/05/05 01:14:29;;;;;;;2.65;1.70;;;16.70;57.20;;;;;;5072518;28;20048;-70
2022/05/05 01:16:56;;;;;;;3.25;1.70;;;16.00;56.70;;;;;;5071797;28;20052;-70
2022/05/05 01:19:23;;;;;;;2.53;1.70;;;16.20;57.20;;;;;;5073743;28;20053;-71
2022/05/05 01:21:54;;;;;;;3.17;1.80;;;15.50;56.50;;;;;;5071140;28;20052;-70
2022/05/05 01:28:10;;;;;;;3.80;1.70;;;16.00;57.00;;;;;;5071594;28;20396;-70
2022/05/05 01:29:54;;;;;;;2.95;1.70;;;16.00;56.80;;;;;;5105066;28;20823;-70
2022/05/05 01:32:20;;;;;;;2.53;1.80;;;16.10;54.30;;;;;;5070660;28;20052;-70
2022/05/05 01:34:47;;;;;;;2.65;1.60;;;16.20;57.30;;;;;;5073221;28;20052;-70
2022/05/05 01:37:15;;;;;;;2.15;1.58;;;15.90;57.00;;;;;;5072154;28;20040;-71
2022/05/05 01:39:42;;;;;;;4.78;2.08;;;15.90;56.80;;;;;;5071007;28;20175;-70
2022/05/05 01:42:09;;;;;;;2.45;1.60;;;15.30;54.60;;;;;;5071381;28;20481;-70
2022/05/05 01:44:35;;;;;;;3.50;1.77;;;15.70;56.70;;;;;;5104750;28;20058;-70
2022/05/05 01:47:02;;;;;;;3.78;1.98;;;16.00;57.10;;;;;;5072223;28;20048;-71
2022/05/05 01:49:29;;;;;;;2.55;1.60;;;15.60;55.80;;;;;;5104701;28;20053;-71
2022/05/05 01:51:55;;;;;;;3.35;1.65;;;15.40;56.90;;;;;;5072144;28;20067;-70
2022/05/05 01:54:24;;;;;;;3.72;1.80;;;15.50;56.90;;;;;;5070724;28;20052;-70
2022/05/05 01:56:50;;;;;;;2.88;1.88;;;15.90;57.10;;;;;;5071835;28;20046;-70
2022/05/05 01:59:17;;;;;;;2.38;1.70;;;15.60;56.80;;;;;;5070898;28;20054;-71
2022/05/05 02:01:44;;;;;;;3.17;1.88;;;15.60;56.70;;;;;;5070424;28;20055;-70
2022/05/05 02:04:10;;;;;;;3.08;1.65;;;15.90;57.00;;;;;;5071060;28;20048;-70
2022/05/05 02:06:37;;;;;;;3.25;1.98;;;16.00;56.90;;;;;;5072810;28;20039;-71
2022/05/05 02:09:04;;;;;;;2.58;1.70;;;15.90;56.90;;;;;;5071656;28;20486;-70
2022/05/05 02:11:32;;;;;;;2.90;1.80;;;15.90;56.90;;;;;;5070618;28;20048;-71
2022/05/05 02:13:59;;;;;;;3.22;1.80;;;16.00;57.30;;;;;;5070494;28;20408;-71
2022/05/05 02:16:25;;;;;;;2.08;1.60;;;15.90;57.20;;;;;;5071932;28;20056;-71
2022/05/05 02:18:52;;;;;;;2.38;1.70;;;15.90;56.90;;;;;;5070708;28;20052;-71
2022/05/05 02:21:19;;;;;;;2.75;1.85;;;;;;;;;;5070150;28;20512;-71
2022/05/05 02:23:46;;;;;;;3.47;1.80;;;15.40;56.50;;;;;;5081519;28;20051;-71
2022/05/05 02:26:13;;;;;;;2.05;1.80;;;16.00;57.10;;;;;;5090862;28;20056;-71
2022/05/05 02:28:41;;;;;;;3.10;1.80;;;16.10;57.10;;;;;;5091537;28;20054;-70
2022/05/05 02:31:08;;;;;;;2.13;1.60;;;;;;;;;;5091503;28;20060;-70
2022/05/05 02:33:35;;;;;;;2.30;1.80;;;16.00;57.00;;;;;;5091869;28;20047;-71
2022/05/05 02:38:47;;;;;;;3.28;2.05;;;;;;;;;;5124064;28;20060;-70
2022/05/05 02:41:14;;;;;;;3.63;1.80;;;;;;;;;;5091395;28;20048;-71
2022/05/05 02:43:43;;;;;;;4.13;1.77;;;16.00;57.20;;;;;;5091711;28;20048;-71
2022/05/05 02:46:09;;;;;;;3.25;1.83;;;16.10;56.80;;;;;;5094777;28;20088;-71
2022/05/05 02:48:37;;;;;;;2.35;1.63;;;15.90;50.30;;;;;;5095904;28;20058;-71
2022/05/05 02:51:04;;;;;;;2.67;1.90;;;16.00;57.00;;;;;;5095714;28;20048;-71
2022/05/05 02:56:17;;;;;;;2.08;1.80;;;15.90;56.70;;;;;;5047075;28;20466;-71
2022/05/05 02:58:45;;;;;;;2.28;1.90;;;15.90;57.10;;;;;;5074294;28;20053;-71
2022/05/05 03:01:11;;;;;;;3.10;1.88;;;15.90;57.10;;;;;;5075544;28;20071;-71
2022/05/05 03:03:38;;;;;;;3.10;1.90;;;16.00;57.10;;;;;;5073971;28;20051;-71
2022/05/05 03:06:05;;;;;;;3.00;2.00;;;;;;;;;;5073956;28;20067;-71
2022/05/05 03:08:32;;;;;;;2.50;2.00;;;15.80;56.80;;;;;;5075167;28;20055;-71
2022/05/05 03:10:59;;;;;;;3.80;2.13;;;;;;;;;;5074927;28;20110;-71
2022/05/05 03:13:26;;;;;;;3.80;1.98;;;15.90;56.80;;;;;;5073591;28;20424;-71
2022/05/05 03:15:54;;;;;;;3.22;1.90;;;15.80;50.40;;;;;;5074018;28;20139;-70
2022/05/05 03:18:21;;;;;;;3.10;1.90;;;15.80;57.20;;;;;;5073916;28;20060;-71
2022/05/05 03:20:48;;;;;;;3.10;1.90;;;15.80;56.90;;;;;;5073084;28;20128;-71
2022/05/05 03:23:15;;;;;;;2.80;1.70;;;16.00;57.00;;;;;;5073899;28;20080;-71
2022/05/05 03:25:42;;;;;;;3.30;2.30;;;;;;;;;;5073705;28;20058;-71
2022/05/05 03:28:09;;;;;;;3.80;2.10;;;;;;;;;;5074928;28;20487;-71
2022/05/05 03:30:36;;;;;;;2.53;1.75;;;16.60;57.30;;;;;;5074498;28;20490;-71
2022/05/05 03:33:05;;;;;;;2.17;1.88;;;16.40;57.20;;;;;;5074315;28;20054;-71
2022/05/05 03:35:31;;;;;;;2.20;1.88;;;15.20;56.50;;;;;;5074748;28;20059;-71
2022/05/05 03:37:58;;;;;;;2.70;1.90;;;15.20;56.50;;;;;;5074659;28;20048;-71
2022/05/05 03:40:25;;;;;;;2.95;1.90;;;15.90;57.10;;;;;;5073259;28;20048;-71
2022/05/05 03:42:51;;;;;;;2.92;1.90;;;15.70;57.10;;;;;;5073237;28;20056;-71
2022/05/05 03:45:18;;;;;;;2.10;1.85;;;15.30;55.90;;;;;;5074699;28;20482;-71
2022/05/05 03:47:45;;;;;;;2.30;1.92;;;15.90;56.90;;;;;;5107250;28;20052;-72
2022/05/05 03:50:13;;;;;;;3.35;1.73;;;15.50;56.70;;;;;;5072892;28;20048;-71
2022/05/05 03:52:40;;;;;;;4.25;2.10;;;15.80;51.90;;;;;;5073466;28;20408;-71
2022/05/05 03:55:07;;;;;;;2.67;2.10;;;15.80;56.90;;;;;;5073603;28;20084;-72
2022/05/05 03:57:34;;;;;;;2.38;1.88;;;15.80;57.10;;;;;;5072756;28;20063;-71
2022/05/05 04:00:01;;;;;;;3.70;1.88;;;15.80;56.70;;;;;;5075144;28;20528;-71
2022/05/05 04:02:27;;;;;;;3.30;1.77;;;15.40;56.70;;;;;;5073215;28;20060;-72
2022/05/05 04:04:54;;;;;;;4.28;1.90;;;16.60;57.30;;;;;;5072835;28;20082;-71
2022/05/05 04:07:22;;;;;;;2.20;1.70;;;15.90;57.10;;;;;;5073944;28;20459;-71
2022/05/05 04:09:49;;;;;;;4.07;2.00;;;15.90;56.70;;;;;;5072784;28;20053;-71
2022/05/05 04:12:15;;;;;;;2.20;1.70;;;15.30;56.40;;;;;;5074028;28;20044;-71
2022/05/05 04:14:42;;;;;;;2.65;2.00;;;15.80;56.80;;;;;;5072738;28;20473;-71
2022/05/05 04:17:09;;;;;;;3.13;1.90;;;16.00;56.70;;;;;;5073828;28;20060;-71
2022/05/05 04:19:36;;;;;;;2.30;1.65;;;16.00;56.80;;;;;;5072426;28;20052;-71
2022/05/05 04:22:03;;;;;;;3.10;2.10;;;15.70;57.00;;;;;;5073721;28;20048;-71
2022/05/05 04:24:31;;;;;;;3.58;2.00;;;15.90;57.00;;;;;;5073863;28;20052;-71
2022/05/05 04:26:58;;;;;;;3.00;1.92;;;15.80;56.80;;;;;;5073767;28;20420;-71
2022/05/05 04:29:25;;;;;;;2.60;2.00;;;;;;;;;;5073579;28;20048;-70
2022/05/05 04:31:51;;;;;;;2.22;1.80;;;16.20;57.00;;;;;;5072381;28;20056;-71
2022/05/05 04:34:18;;;;;;;3.15;1.90;;;;;;;;;;5072594;28;20048;-71
2022/05/05 04:36:45;;;;;;;3.13;1.90;;;15.90;54.40;;;;;;5072557;28;20059;-71
2022/05/05 04:39:12;;;;;;;2.42;1.85;;;14.90;56.20;;;;;;5083027;28;20044;-71
2022/05/05 04:41:40;;;;;;;2.78;1.98;;;15.90;56.70;;;;;;5093361;28;20048;-70
2022/05/05 04:44:06;;;;;;;3.35;2.00;;;16.00;56.50;;;;;;5093726;28;20047;-70
2022/05/05 04:46:34;;;;;;;3.65;1.77;;;;;;;;;;5092253;28;20444;-69
2022/05/05 04:49:01;;;;;;;2.53;2.00;;;16.00;56.40;;;;;;5091155;28;20048;-70
2022/05/05 04:51:27;;;;;;;3.42;1.70;;;16.00;56.50;;;;;;5098027;28;20058;-70
2022/05/05 04:53:54;;;;;;;5.10;2.03;;;15.70;56.60;;;;;;5102412;28;20047;-70
2022/05/05 04:56:21;;;;;;;3.22;2.03;;;16.10;56.80;;;;;;5102463;28;20052;-70
2022/05/05 04:58:49;;;;;;;3.25;1.98;;;16.10;56.60;;;;;;5101134;28;20055;-70
2022/05/05 05:01:16;;;;;;;4.28;2.00;;;16.00;53.60;;;;;;5091974;28;20058;-70
2022/05/05 05:03:42;;;;;;;2.10;1.80;;;16.00;56.50;;;;;;5100604;28;20043;-70
2022/05/05 05:06:09;;;;;;;3.08;2.08;;;15.60;56.00;;;;;;5095072;28;20475;-69
2022/05/05 05:08:36;;;;;;;2.67;1.90;;;15.60;56.20;;;;;;5098516;28;20054;-69
2022/05/05 05:11:03;;;;;;;2.72;1.80;;;15.80;56.20;;;;;;5102181;28;20048;-69
2022/05/05 05:13:30;;;;;;;3.55;1.80;;;;;;;;;;5101668;28;20048;-69
2022/05/05 05:15:58;;;;;;;3.15;1.92;;;16.30;56.10;;;;;;5103701;28;20035;-69
2022/05/05 05:18:25;;;;;;;3.33;2.00;;;16.30;56.50;;;;;;5101382;28;20052;-69
2022/05/05 05:20:52;;;;;;;2.85;1.95;;;;;;;;;;5100491;28;20643;-68
2022/05/05 05:23:19;;;;;;;2.72;1.70;;;15.70;56.00;;;;;;5101893;28;20040;-68
2022/05/05 05:25:46;;;;;;;2.88;1.90;;;16.10;56.10;;;;;;5102048;28;20413;-70
2022/05/05 05:28:13;;;;;;;2.90;1.98;;;16.30;56.00;;;;;;5102074;28;20043;-69
2022/05/05 05:30:40;;;;;;;2.80;1.80;;;16.30;55.90;;;;;;5097921;28;20048;-69
2022/05/05 05:33:08;;;;;;;2.83;1.90;;;16.60;56.20;;;;;;5091751;28;20122;-69
2022/05/05 05:35:35;;;;;;;3.63;2.08;;;16.40;56.10;;;;;;5125358;27;20066;-69
2022/05/05 05:38:01;;;;;;;2.63;1.77;;;16.30;55.70;;;;;;5081043;28;20413;-69
2022/05/05 05:40:28;;;;;;;3.38;2.08;;;16.40;55.80;;;;;;5070946;28;20067;-69
2022/05/05 05:42:55;;;;;;;3.33;1.90;;;16.30;55.90;;;;;;5071437;28;20139;-69
2022/05/05 05:45:22;;;;;;;1.98;1.73;;;17.20;56.40;;;;;;5071298;28;20059;-69
2022/05/05 05:47:48;;;;;;;2.42;1.92;;;16.40;55.70;;;;;;5072460;28;20421;-69
2022/05/05 05:50:17;;;;;;;2.45;1.80;;;15.60;55.40;;;;;;5072063;28;20137;-69
2022/05/05 05:52:44;;;;;;;2.40;1.70;;;16.50;55.80;;;;;;5071664;28;20074;-69
2022/05/05 05:55:10;;;;;;;3.25;1.92;;;16.60;55.80;;;;;;5088721;28;20054;-69
2022/05/05 05:57:37;;;;;;;3.28;2.03;;;16.50;55.40;;;;;;5091015;28;20058;-69
2022/05/05 06:00:05;;;;;;;2.85;1.85;;;16.80;55.90;;;;;;5092594;28;20074;-69
2022/05/05 06:05:17;;;;;;;6.18;2.13;;;16.60;55.70;;;;;;5125596;27;20048;-69
2022/05/05 06:07:44;;;;;;;2.97;1.88;;;16.90;56.00;;;;;;5091935;28;20050;-69
2022/05/05 06:10:11;;;;;;;3.17;1.92;;;17.10;56.10;;;;;;5082781;28;20041;-70
2022/05/05 06:12:38;;;;;;;2.72;1.70;;;15.90;52.00;;;;;;5063011;28;20036;-69
2022/05/05 06:15:05;;;;;;;2.40;1.70;;;16.70;55.60;;;;;;5104278;28;20054;-69
2022/05/05 06:17:32;;;;;;;3.00;2.28;;;16.80;55.70;;;;;;5109869;28;20039;-70
2022/05/05 06:19:58;;;;;;;2.08;1.63;;;17.00;56.80;;;;;;5108157;28;20047;-70
2022/05/05 06:22:26;;;;;;;2.65;1.70;;;17.60;56.10;;;;;;5093388;28;20408;-70
2022/05/05 06:24:53;;;;;;;2.47;1.60;;;16.70;55.50;;;;;;5091509;28;20131;-71
2022/05/05 06:27:20;;;;;;;3.83;1.83;;;16.80;50.50;;;;;;5089071;28;20052;-70
2022/05/05 06:29:46;;;;;;;2.00;1.60;;;16.20;55.10;;;;;;5090737;28;20386;-69
2022/05/05 06:32:17;;;;;;;2.80;1.60;;;16.80;55.30;;;;;;5090333;28;20059;-70
2022/05/05 06:34:43;;;;;;;3.10;1.80;;;17.70;56.00;;;;;;5090786;28;20040;-70
2022/05/05 06:37:12;;;;;;;3.28;1.80;;;16.00;54.80;;;;;;5090804;28;20060;-70
2022/05/05 06:39:40;;;;;;;13.90;5.90;;;17.00;55.20;;;;;;5090261;28;20060;-70
2022/05/05 06:42:07;;;;;;;5.03;3.15;;;16.80;55.40;;;;;;5086790;28;20060;-70
2022/05/05 06:44:34;;;;;;;4.53;2.70;;;17.50;55.90;;;;;;5071350;28;20045;-71
2022/05/05 06:47:00;;;;;;;6.40;2.53;;;17.10;55.30;;;;;;5070728;28;20416;-71
2022/05/05 06:49:27;;;;;;;5.47;2.42;;;16.90;55.40;;;;;;5090129;28;20052;-71
2022/05/05 06:51:54;;;;;;;3.75;2.22;;;16.90;55.30;;;;;;5090454;28;20055;-70
2022/05/05 06:54:20;;;;;;;4.28;2.30;;;17.20;55.30;;;;;;5091207;28;20513;-71
2022/05/05 06:56:48;;;;;;;5.63;2.70;;;16.70;54.80;;;;;;5091242;28;20048;-70
2022/05/05 06:59:15;;;;;;;3.83;2.00;;;16.60;55.20;;;;;;5085775;28;20052;-70
2022/05/05 07:01:54;;;;;;;3.45;2.20;;;17.30;55.20;;;;;;5089605;28;20435;-71
2022/05/05 07:07:07;;;;;;;4.97;1.95;;;;;;;;;;5090921;28;20048;-70
2022/05/05 07:12:19;;;;;;;3.40;2.05;;;17.40;55.20;;;;;;5091323;28;20060;-72
2022/05/05 07:14:46;;;;;;;4.90;2.05;;;16.80;54.70;;;;;;5089645;28;20047;-71
2022/05/05 07:17:13;;;;;;;3.72;2.17;;;17.10;49.20;;;;;;5091187;28;20048;-71
2022/05/05 07:19:39;;;;;;;3.92;2.08;;;17.20;54.70;;;;;;5089818;28;20060;-71
2022/05/05 07:22:07;;;;;;;2.28;1.90;;;;;;;;;;5091520;28;20052;-71
2022/05/05 07:24:33;;;;;;;4.47;2.25;;;17.40;53.80;;;;;;5091577;28;20043;-71
2022/05/05 07:27:00;;;;;;;3.35;2.25;;;17.00;54.70;;;;;;5090331;28;20060;-71
2022/05/05 07:29:29;;;;;;;2.95;1.58;;;17.20;50.00;;;;;;5089716;28;20059;-71
2022/05/05 07:31:56;;;;;;;3.70;1.98;;;17.10;54.80;;;;;;5091695;28;20062;-71
2022/05/05 07:34:22;;;;;;;3.58;2.00;;;16.10;54.40;;;;;;5093948;28;20079;-70
2022/05/05 07:36:49;;;;;;;6.05;2.00;;;17.10;54.50;;;;;;5094061;28;20058;-69
2022/05/05 07:39:16;;;;;;;5.05;1.80;;;17.10;55.20;;;;;;5092729;28;20503;-70
2022/05/05 07:41:43;;;;;;;3.85;1.80;;;16.80;55.80;;;;;;5093664;28;20044;-70
2022/05/05 07:44:10;;;;;;;2.95;1.80;;;;;;;;;;5094286;28;20123;-70
2022/05/05 07:46:38;;;;;;;5.30;2.00;;;17.20;54.80;;;;;;5088939;28;20417;-70
2022/05/05 07:49:05;;;;;;;3.03;2.00;;;16.20;54.10;;;;;;5074625;28;20051;-70
2022/05/05 07:51:32;;;;;;;5.13;1.92;;;16.00;54.20;;;;;;5074481;28;20059;-70
2022/05/05 07:56:43;;;;;;;9.32;1.80;;;17.10;55.00;;;;;;5106383;28;20045;-70
2022/05/05 07:59:10;;;;;;;4.70;2.03;;;;;;;;;;5074908;28;20410;-71
2022/05/05 08:01:38;;;;;;;3.10;1.60;;;17.80;55.80;;;;;;5073271;28;20048;-71
2022/05/05 08:04:06;;;;;;;3.63;1.70;;;16.30;55.00;;;;;;5074565;28;20063;-71
2022/05/05 08:06:33;;;;;;;4.38;1.95;;;17.10;49.90;;;;;;5106832;28;20123;-71
2022/05/05 08:08:59;;;;;;;3.72;1.60;;;17.60;56.20;;;;;;5073014;28;20052;-72
2022/05/05 08:11:27;;;;;;;4.43;1.80;;;17.90;55.80;;;;;;5073156;28;20052;-71
2022/05/05 08:13:54;;;;;;;3.58;1.85;;;17.80;56.00;;;;;;5074235;28;20060;-72
2022/05/05 08:16:21;;;;;;;5.15;1.80;;;17.40;55.70;;;;;;5073869;28;20060;-71
2022/05/05 08:18:49;;;;;;;2.60;1.50;;;17.70;55.60;;;;;;5076537;28;20048;-70
2022/05/05 08:21:15;;;;;;;1.92;1.50;;;16.80;56.00;;;;;;5094158;28;20052;-71
2022/05/05 08:23:42;;;;;;;2.58;1.40;;;17.20;56.70;;;;;;5093186;28;20481;-70
2022/05/05 08:28:53;;;;;;;3.08;1.50;;;17.30;56.10;;;;;;5127130;27;20048;-70
2022/05/05 08:31:20;;;;;;;4.63;2.05;;;16.80;55.50;;;;;;5092704;28;20047;-70
2022/05/05 08:33:47;;;;;;;4.32;1.83;;;16.60;54.80;;;;;;5094028;28;20119;-69
2022/05/05 08:36:15;;;;;;;2.63;1.55;;;18.10;56.10;;;;;;5090903;28;20079;-71
2022/05/05 08:38:44;;;;;;;3.03;1.50;;;18.10;55.90;;;;;;5092768;28;20427;-70
2022/05/05 08:41:11;;;;;;;2.97;1.67;;;18.10;55.60;;;;;;5093622;28;20052;-71
2022/05/05 08:43:38;;;;;;;2.72;1.60;;;18.10;55.90;;;;;;5092874;28;20048;-71
2022/05/05 08:46:06;;;;;;;2.45;1.50;;;17.70;55.80;;;;;;5092830;28;20105;-70
2022/05/05 08:48:33;;;;;;;2.05;1.52;;;17.50;55.60;;;;;;5092372;28;20052;-70
2022/05/05 08:51:01;;;;;;;3.15;1.88;;;17.90;55.70;;;;;;5092390;28;20051;-71
2022/05/05 08:53:32;;;;;;;4.50;1.50;;;16.90;55.30;;;;;;5091684;28;20048;-70
2022/05/05 08:55:59;;;;;;;3.58;1.70;;;17.50;50.00;;;;;;5091519;28;20569;-70
2022/05/05 08:58:26;;;;;;;4.40;1.63;;;17.50;49.90;;;;;;5092251;28;20113;-70
2022/05/05 09:00:52;;;;;;;3.67;1.80;;;17.30;55.30;;;;;;5091760;28;20047;-70
2022/05/05 09:03:19;;;;;;;2.53;1.98;;;17.50;49.80;;;;;;5083631;28;20060;-70
2022/05/05 09:05:47;;;;;;;3.72;1.65;;;17.70;55.40;;;;;;5092702;28;20052;-70
2022/05/05 09:08:14;;;;;;;2.45;1.63;;;16.70;54.50;;;;;;5126501;27;20109;-70
2022/05/05 09:10:44;;;;;;;3.70;1.58;;;17.60;55.40;;;;;;5093144;28;20047;-70
2022/05/05 09:13:11;;;;;;;3.20;1.52;;;17.90;55.40;;;;;;5092340;28;20063;-70
2022/05/05 09:15:40;;;;;;;4.15;1.73;;;17.30;54.90;;;;;;5091828;28;20052;-71
2022/05/05 09:18:12;;;;;;;3.53;1.63;;;17.60;56.00;;;;;;5073172;28;20056;-72
2022/05/05 09:20:38;;;;;;;3.33;1.67;;;16.90;54.80;;;;;;5071453;28;20056;-72
2022/05/05 09:23:05;;;;;;;3.15;1.40;;;17.80;55.30;;;;;;5071781;28;20060;-71
2022/05/05 09:25:45;;;;;;;2.75;1.60;;;18.20;55.60;;;;;;5071614;28;20586;-71
2022/05/05 09:28:19;;;;;;;2.03;1.40;;;17.70;49.00;;;;;;5071857;28;20056;-71
2022/05/05 09:30:47;;;;;;;1.80;1.30;;;17.70;49.50;;;;;;5071442;28;20052;-70
2022/05/05 09:33:15;;;;;;;2.78;1.40;;;17.60;54.90;;;;;;5085071;28;20055;-70
2022/05/05 09:35:41;;;;;;;2.08;1.40;;;17.80;55.30;;;;;;5091646;28;20044;-70
2022/05/05 09:38:09;;;;;;;2.47;1.67;;;18.00;54.90;;;;;;5091548;28;20501;-70
2022/05/05 09:40:36;;;;;;;2.72;1.35;;;17.30;54.90;;;;;;5091213;28;20059;-70
2022/05/05 09:43:04;;;;;;;2.13;1.52;;;18.00;55.00;;;;;;5091746;28;20066;-70
2022/05/05 09:45:32;;;;;;;2.50;1.40;;;18.50;55.00;;;;;;5092817;28;20144;-71
2022/05/05 09:47:59;;;;;;;1.98;1.23;;;18.10;54.70;;;;;;5093792;28;20135;-70
2022/05/05 09:50:27;;;;;;;1.80;1.35;;;18.00;54.90;;;;;;5100404;28;20043;-70
2022/05/05 09:58:35;;;;;;;2.25;1.45;;;17.60;55.00;;;;;;5098153;28;20048;-70
2022/05/05 10:01:05;;;;;;;4.93;1.70;;;18.00;54.80;;;;;;5106622;28;20048;-69
2022/05/05 10:06:25;;;;;;;1.58;1.40;;;17.20;51.90;;;;;;5105402;27;20048;-70
2022/05/05 10:08:53;;;;;;;2.42;1.42;;;18.00;55.10;;;;;;5078638;28;20048;-71
2022/05/05 10:11:19;;;;;;;3.75;1.55;;;18.10;54.70;;;;;;5090997;28;20040;-71
2022/05/05 10:13:47;;;;;;;3.10;1.80;;;18.10;54.70;;;;;;5079694;28;20055;-71
2022/05/05 10:16:15;;;;;;;1.90;1.38;;;18.40;54.70;;;;;;5090698;28;20052;-71
2022/05/05 10:18:43;;;;;;;2.50;1.30;;;18.30;54.40;;;;;;5112085;27;20075;-71
2022/05/05 10:21:12;;;;;;;2.88;1.45;;;18.10;54.70;;;;;;5104193;28;20130;-71
2022/05/05 10:23:44;;;;;;;1.98;1.60;;;18.20;54.50;;;;;;5070874;28;20055;-71
2022/05/05 10:26:11;;;;;;;4.47;1.63;;;18.20;49.70;;;;;;5104760;28;20055;-70
2022/05/05 10:28:41;;;;;;;1.58;1.33;;;18.00;54.20;;;;;;5104434;28;20478;-71
2022/05/05 10:31:13;;;;;;;3.22;1.60;;;17.80;54.60;;;;;;5086829;28;20064;-70
2022/05/05 10:33:59;;;;;;;1.42;1.30;;;17.90;54.20;;;;;;5125104;27;20060;-69
2022/05/05 10:36:26;;;;;;;4.13;1.80;;;17.80;53.90;;;;;;5090649;28;20055;-70
2022/05/05 10:38:52;;;;;;;2.42;1.60;;;18.30;54.60;;;;;;5091663;28;20493;-69
2022/05/05 10:41:35;;;;;;;3.67;1.50;;;18.00;55.60;;;;;;5124469;28;20056;-69
2022/05/05 10:44:22;;;;;;;3.08;1.70;;;18.00;54.50;;;;;;5096826;28;20043;-69
2022/05/05 10:47:01;;;;;;;2.25;1.45;;;19.00;54.60;;;;;;5102271;28;20430;-71
2022/05/05 10:49:48;;;;;;;2.83;1.55;;;18.70;55.20;;;;;;5101354;28;20055;-71
2022/05/05 10:52:30;;;;;;;2.83;1.60;;;18.20;54.20;;;;;;5093572;28;20043;-69
2022/05/05 10:54:57;;;;;;;6.05;1.67;;;18.30;54.30;;;;;;5097246;28;20044;-71
2022/05/05 10:57:40;;;;;;;3.13;1.65;;;17.70;53.80;;;;;;5092528;28;20136;-71
2022/05/05 11:00:07;;;;;;;2.25;1.58;;;18.90;54.60;;;;;;5090192;28;20459;-71
2022/05/05 11:02:35;;;;;;;3.72;1.60;;;17.30;53.70;;;;;;5091483;28;20401;-71
2022/05/05 11:05:23;;;;;;;3.97;1.50;;;18.20;53.80;;;;;;5090727;28;20131;-70
2022/05/05 11:07:50;;;;;;;2.97;1.67;;;17.50;53.90;;;;;;5094498;28;20070;-70
2022/05/05 11:11:39;;;;;;;2.10;1.30;;;18.10;48.20;;;;;;5094392;28;20404;-71
2022/05/05 11:13:37;;;;;;;2.00;1.30;;;17.10;53.60;;;;;;5052156;28;20045;-70
2022/05/05 11:22:07;;;;;;;2.85;1.30;;;18.50;54.60;;;;;;5084120;28;20055;-69
2022/05/05 11:24:34;;;;;;;3.38;1.60;;;19.10;54.50;;;;;;5094742;28;20052;-71
2022/05/05 11:27:01;;;;;;;1.65;1.45;;;18.40;53.70;;;;;;5093990;28;20055;-69
2022/05/05 11:29:31;;;;;;;1.90;1.50;;;18.20;54.00;;;;;;5094126;28;20074;-71
2022/05/05 11:31:58;;;;;;;2.00;1.50;;;18.20;54.50;;;;;;5091329;28;20091;-70
2022/05/05 11:34:33;;;;;;;1.70;1.40;;;18.30;54.00;;;;;;5073878;28;20063;-70
2022/05/05 11:37:00;;;;;;;2.35;1.55;;;19.00;54.80;;;;;;5073586;28;20052;-70
2022/05/05 11:39:27;;;;;;;3.22;1.80;;;18.40;54.00;;;;;;5074765;28;20178;-69
2022/05/05 11:41:58;;;;;;;2.33;1.70;;;18.30;54.00;;;;;;5074554;28;20132;-69
2022/05/05 11:44:25;;;;;;;2.28;1.70;;;17.50;53.70;;;;;;5073979;28;20052;-69
2022/05/05 11:46:53;;;;;;;4.30;2.00;;;18.30;53.80;;;;;;5085426;28;20131;-69
2022/05/05 11:49:20;;;;;;;4.70;1.65;;;18.20;53.80;;;;;;5093780;28;20105;-70
2022/05/05 11:51:48;;;;;;;5.00;1.67;;;19.00;53.80;;;;;;5093645;28;20060;-69
2022/05/05 11:54:35;;;;;;;3.15;1.73;;;18.30;48.90;;;;;;5093745;28;20060;-69
2022/05/05 11:57:02;;;;;;;4.43;1.80;;;18.60;54.50;;;;;;5088693;28;20052;-69
2022/05/05 12:02:15;;;;;;;2.63;1.83;;;18.80;53.90;;;;;;5074450;28;20404;-69
2022/05/05 12:04:44;;;;;;;3.20;1.70;;;18.40;53.80;;;;;;5074246;28;20429;-68
2022/05/05 12:07:18;;;;;;;2.15;1.77;;;18.50;53.70;;;;;;5088376;28;20052;-69
2022/05/05 12:09:46;;;;;;;3.22;1.73;;;18.30;54.70;;;;;;5092968;28;20090;-69
2022/05/05 12:12:17;;;;;;;3.35;1.90;;;17.80;53.90;;;;;;5094519;28;20063;-69
2022/05/05 12:14:45;;;;;;;3.65;1.85;;;18.50;54.00;;;;;;5093926;28;20281;-70
2022/05/05 12:17:18;;;;;;;4.18;2.10;;;18.50;53.90;;;;;;5093325;28;20058;-69
2022/05/05 12:19:46;;;;;;;2.47;1.65;;;19.10;54.40;;;;;;5094167;28;20048;-69
2022/05/05 12:22:14;;;;;;;3.22;1.67;;;18.70;53.90;;;;;;5094153;28;20060;-69
2022/05/05 12:24:44;;;;;;;4.78;1.95;;;18.50;54.00;;;;;;5094404;28;20138;-70
2022/05/05 12:27:11;;;;;;;4.57;1.60;;;18.80;52.70;;;;;;5087825;28;20386;-69
2022/05/05 12:29:39;;;;;;;3.17;1.60;;;18.50;55.30;;;;;;5072706;28;20052;-69
2022/05/05 12:32:09;;;;;;;4.22;1.50;;;18.40;54.40;;;;;;5073713;28;20045;-69
2022/05/05 12:34:35;;;;;;;6.10;1.70;;;18.50;53.70;;;;;;5073992;28;20131;-69
2022/05/05 12:37:17;;;;;;;2.53;1.50;;;19.20;54.60;;;;;;5082273;28;20050;-68
2022/05/05 12:39:56;;;;;;;2.38;1.45;;;18.30;53.90;;;;;;5092270;28;20131;-69
2022/05/05 12:42:23;;;;;;;2.40;1.98;;;18.70;54.00;;;;;;5072821;28;20052;-70
2022/05/05 12:44:50;;;;;;;2.45;1.60;;;18.50;54.30;;;;;;5071717;28;20110;-69
2022/05/05 12:47:22;;;;;;;2.55;1.60;;;17.20;54.70;;;;;;5073599;28;20055;-69
2022/05/05 12:49:49;;;;;;;4.90;2.00;;;18.50;54.00;;;;;;5073294;28;20470;-68
2022/05/05 13:00:50;;;;;;;2.97;1.50;;;18.60;54.30;;;;;;5105900;28;20052;-68
2022/05/05 13:03:18;;;;;;;2.45;1.50;;;17.70;53.10;;;;;;5085468;28;20060;-68
2022/05/05 13:05:46;;;;;;;3.10;1.50;;;18.70;54.10;;;;;;5120201;27;20079;-69
2022/05/05 13:08:14;;;;;;;3.25;1.70;;;18.40;54.20;;;;;;5092395;28;20047;-71
2022/05/05 13:10:41;;;;;;;3.55;1.70;;;18.40;54.20;;;;;;5092129;28;20489;-71
2022/05/05 13:13:07;;;;;;;3.55;1.83;;;17.90;56.00;;;;;;5093444;28;20040;-71
2022/05/05 13:15:34;;;;;;;2.05;1.50;;;19.30;54.90;;;;;;5092671;28;20408;-70
2022/05/05 13:18:01;;;;;;;4.03;1.65;;;18.90;54.30;;;;;;5091716;28;20052;-70
2022/05/05 13:20:27;;;;;;;3.75;1.63;;;18.10;54.40;;;;;;5075304;28;20135;-71
2022/05/05 13:22:54;;;;;;;3.15;1.65;;;18.80;54.30;;;;;;5072726;28;20052;-70
2022/05/05 13:25:23;;;;;;;2.33;1.67;;;19.10;55.50;;;;;;5072787;28;20155;-70
2022/05/05 13:27:50;;;;;;;4.63;2.25;;;18.30;54.20;;;;;;5070233;28;20470;-71
2022/05/05 13:30:16;;;;;;;4.05;1.88;;;18.70;54.40;;;;;;5071406;28;20072;-70
2022/05/05 13:32:43;;;;;;;5.93;2.38;;;18.50;54.60;;;;;;5077440;28;20563;-70
2022/05/05 13:35:10;;;;;;;5.60;1.80;;;18.70;54.40;;;;;;5092960;28;20050;-70
2022/05/05 13:37:38;;;;;;;3.85;1.98;;;18.10;53.90;;;;;;5091483;28;20044;-71
2022/05/05 13:40:07;;;;;;;3.08;1.70;;;18.60;49.10;;;;;;5091416;28;20060;-71
2022/05/05 13:42:35;;;;;;;2.75;1.85;;;18.80;54.50;;;;;;5125909;27;20056;-72
2022/05/05 13:45:01;;;;;;;6.72;1.73;;;18.40;54.60;;;;;;5091379;28;20052;-71
2022/05/05 13:47:28;;;;;;;2.25;1.85;;;18.60;54.40;;;;;;5077172;28;20045;-71